Ashburnham, Massachusetts
Current Conditions -  °F | °C
As of 12:52 AM on Friday 31 Oct 2014 (Local Time) from KFIT Reporting Station
Overcast Overcast  
Wind Chill: 43°   Ceiling: 3900
Heat Index: 43°   Visibility: 10mi
Dew Point: 37°   Wind: 0mph
Humidity: 80%   Direction: NA
Pressure: 30.01"   Gusts: NA
Location:  42.64°N, 71.91°W
Report Text: KFIT 310452Z AUTO 00000KT 10SM BKN039 OVC055 06/03 A3001 RMK AO2 SLP165 T00610028 401440033
Loading
Personal Weather Stations






























Interactive Weather Map
Tropical Storm Tracking
New forecast layout! Learn more

10-Day Weather Forecast

Advertisements
Track Severe Weather on mobile